sensor_id;sensor_type;location;lat;lon;timestamp;P1;durP1;ratioP1;P2;durP2;ratioP2
18649;SDS011;9454;53.516;10.478;2023-09-12T00:03:12;9.10;;;4.82;;
18649;SDS011;9454;53.516;10.478;2023-09-12T00:06:16;16.48;;;5.40;;
18649;SDS011;9454;53.516;10.478;2023-09-12T00:09:21;11.07;;;5.00;;
18649;SDS011;9454;53.516;10.478;2023-09-12T00:12:25;9.40;;;6.10;;
18649;SDS011;9454;53.516;10.478;2023-09-12T00:15:29;9.55;;;4.70;;
18649;SDS011;9454;53.516;10.478;2023-09-12T00:18:32;17.20;;;5.80;;
18649;SDS011;9454;53.516;10.478;2023-09-12T00:21:36;12.00;;;6.07;;
18649;SDS011;9454;53.516;10.478;2023-09-12T00:24:42;7.22;;;5.35;;
18649;SDS011;9454;53.516;10.478;2023-09-12T00:27:45;8.80;;;5.53;;
18649;SDS011;9454;53.516;10.478;2023-09-12T00:30:49;11.70;;;5.60;;
18649;SDS011;9454;53.516;10.478;2023-09-12T00:33:53;17.52;;;6.38;;
18649;SDS011;9454;53.516;10.478;2023-09-12T00:36:57;16.55;;;6.43;;
18649;SDS011;9454;53.516;10.478;2023-09-12T00:40:02;16.25;;;6.43;;
18649;SDS011;9454;53.516;10.478;2023-09-12T00:43:08;10.40;;;4.72;;
18649;SDS011;9454;53.516;10.478;2023-09-12T00:46:12;13.88;;;6.38;;
18649;SDS011;9454;53.516;10.478;2023-09-12T00:49:20;10.60;;;5.75;;
18649;SDS011;9454;53.516;10.478;2023-09-12T00:52:25;22.23;;;7.05;;
18649;SDS011;9454;53.516;10.478;2023-09-12T00:55:30;19.52;;;6.72;;
18649;SDS011;9454;53.516;10.478;2023-09-12T00:58:38;12.60;;;6.65;;
18649;SDS011;9454;53.516;10.478;2023-09-12T01:01:42;18.58;;;8.63;;
18649;SDS011;9454;53.516;10.478;2023-09-12T01:04:45;15.48;;;9.25;;
18649;SDS011;9454;53.516;10.478;2023-09-12T01:07:49;20.90;;;10.90;;
18649;SDS011;9454;53.516;10.478;2023-09-12T01:10:55;30.10;;;11.43;;
18649;SDS011;9454;53.516;10.478;2023-09-12T01:14:00;23.15;;;11.50;;
18649;SDS011;9454;53.516;10.478;2023-09-12T01:17:08;21.55;;;10.60;;
18649;SDS011;9454;53.516;10.478;2023-09-12T01:20:14;21.23;;;10.07;;
18649;SDS011;9454;53.516;10.478;2023-09-12T01:23:21;12.90;;;7.35;;
18649;SDS011;9454;53.516;10.478;2023-09-12T01:26:34;24.50;;;10.07;;
18649;SDS011;9454;53.516;10.478;2023-09-12T01:29:41;19.17;;;10.00;;
18649;SDS011;9454;53.516;10.478;2023-09-12T01:32:46;20.63;;;9.55;;
18649;SDS011;9454;53.516;10.478;2023-09-12T01:35:50;18.00;;;9.38;;
18649;SDS011;9454;53.516;10.478;2023-09-12T01:38:54;13.77;;;7.80;;
18649;SDS011;9454;53.516;10.478;2023-09-12T01:41:58;17.63;;;9.45;;
18649;SDS011;9454;53.516;10.478;2023-09-12T01:45:04;17.63;;;9.50;;
18649;SDS011;9454;53.516;10.478;2023-09-12T01:48:07;22.38;;;11.05;;
18649;SDS011;9454;53.516;10.478;2023-09-12T01:51:11;18.63;;;9.88;;
18649;SDS011;9454;53.516;10.478;2023-09-12T01:54:18;17.27;;;9.55;;
18649;SDS011;9454;53.516;10.478;2023-09-12T01:57:23;18.98;;;9.20;;
18649;SDS011;9454;53.516;10.478;2023-09-12T02:00:28;16.75;;;9.40;;
18649;SDS011;9454;53.516;10.478;2023-09-12T02:03:32;17.52;;;9.65;;
18649;SDS011;9454;53.516;10.478;2023-09-12T02:06:36;18.98;;;9.82;;
18649;SDS011;9454;53.516;10.478;2023-09-12T02:09:40;20.75;;;10.38;;
18649;SDS011;9454;53.516;10.478;2023-09-12T02:12:44;21.50;;;11.20;;
18649;SDS011;9454;53.516;10.478;2023-09-12T02:15:49;23.67;;;12.05;;
18649;SDS011;9454;53.516;10.478;2023-09-12T02:18:53;21.77;;;12.15;;
18649;SDS011;9454;53.516;10.478;2023-09-12T02:21:57;22.65;;;13.13;;
18649;SDS011;9454;53.516;10.478;2023-09-12T02:25:01;32.28;;;12.70;;
18649;SDS011;9454;53.516;10.478;2023-09-12T02:28:07;24.88;;;12.98;;
18649;SDS011;9454;53.516;10.478;2023-09-12T02:31:12;23.15;;;12.85;;
18649;SDS011;9454;53.516;10.478;2023-09-12T02:34:15;25.80;;;12.55;;
18649;SDS011;9454;53.516;10.478;2023-09-12T02:37:19;26.17;;;11.52;;
18649;SDS011;9454;53.516;10.478;2023-09-12T02:40:22;20.92;;;9.77;;
18649;SDS011;9454;53.516;10.478;2023-09-12T02:43:26;18.77;;;10.82;;
18649;SDS011;9454;53.516;10.478;2023-09-12T02:46:31;20.80;;;10.05;;
18649;SDS011;9454;53.516;10.478;2023-09-12T02:49:35;18.30;;;10.02;;
18649;SDS011;9454;53.516;10.478;2023-09-12T02:52:39;20.17;;;10.90;;
18649;SDS011;9454;53.516;10.478;2023-09-12T02:55:44;23.17;;;12.68;;
18649;SDS011;9454;53.516;10.478;2023-09-12T02:58:48;33.13;;;15.98;;
18649;SDS011;9454;53.516;10.478;2023-09-12T03:01:53;30.00;;;15.30;;
18649;SDS011;9454;53.516;10.478;2023-09-12T03:04:57;28.00;;;14.40;;
18649;SDS011;9454;53.516;10.478;2023-09-12T03:08:01;30.08;;;15.35;;
18649;SDS011;9454;53.516;10.478;2023-09-12T03:11:05;29.58;;;14.43;;
18649;SDS011;9454;53.516;10.478;2023-09-12T03:14:09;30.83;;;15.30;;
18649;SDS011;9454;53.516;10.478;2023-09-12T03:17:14;29.35;;;13.63;;
18649;SDS011;9454;53.516;10.478;2023-09-12T03:20:17;29.52;;;15.98;;
18649;SDS011;9454;53.516;10.478;2023-09-12T03:23:21;27.45;;;15.05;;
18649;SDS011;9454;53.516;10.478;2023-09-12T03:26:25;31.27;;;15.50;;
18649;SDS011;9454;53.516;10.478;2023-09-12T03:29:29;29.38;;;14.95;;
18649;SDS011;9454;53.516;10.478;2023-09-12T03:32:34;28.38;;;13.32;;
18649;SDS011;9454;53.516;10.478;2023-09-12T03:35:37;32.10;;;13.38;;
18649;SDS011;9454;53.516;10.478;2023-09-12T03:38:41;28.73;;;13.38;;
18649;SDS011;9454;53.516;10.478;2023-09-12T03:41:45;24.60;;;13.65;;
18649;SDS011;9454;53.516;10.478;2023-09-12T03:44:52;30.88;;;15.02;;
18649;SDS011;9454;53.516;10.478;2023-09-12T03:47:57;28.23;;;13.57;;
18649;SDS011;9454;53.516;10.478;2023-09-12T03:51:01;27.42;;;13.38;;
18649;SDS011;9454;53.516;10.478;2023-09-12T03:54:05;34.05;;;14.95;;
18649;SDS011;9454;53.516;10.478;2023-09-12T03:57:09;31.38;;;15.32;;
18649;SDS011;9454;53.516;10.478;2023-09-12T04:00:15;37.78;;;15.35;;
18649;SDS011;9454;53.516;10.478;2023-09-12T04:03:23;26.55;;;12.73;;
18649;SDS011;9454;53.516;10.478;2023-09-12T04:06:27;26.40;;;13.35;;
18649;SDS011;9454;53.516;10.478;2023-09-12T04:09:31;23.50;;;11.77;;
18649;SDS011;9454;53.516;10.478;2023-09-12T04:12:38;34.30;;;15.48;;
18649;SDS011;9454;53.516;10.478;2023-09-12T04:15:42;26.05;;;11.90;;
18649;SDS011;9454;53.516;10.478;2023-09-12T04:18:48;25.45;;;13.10;;
18649;SDS011;9454;53.516;10.478;2023-09-12T04:21:51;30.95;;;14.10;;
18649;SDS011;9454;53.516;10.478;2023-09-12T04:24:56;25.00;;;12.38;;
18649;SDS011;9454;53.516;10.478;2023-09-12T04:27:59;25.92;;;13.60;;
18649;SDS011;9454;53.516;10.478;2023-09-12T04:31:03;28.63;;;14.10;;
18649;SDS011;9454;53.516;10.478;2023-09-12T04:34:08;22.00;;;11.73;;
18649;SDS011;9454;53.516;10.478;2023-09-12T04:37:12;28.55;;;13.65;;
18649;SDS011;9454;53.516;10.478;2023-09-12T04:40:16;26.00;;;13.30;;
18649;SDS011;9454;53.516;10.478;2023-09-12T04:43:20;31.58;;;14.57;;
18649;SDS011;9454;53.516;10.478;2023-09-12T04:46:23;26.92;;;13.30;;
18649;SDS011;9454;53.516;10.478;2023-09-12T04:49:28;25.13;;;13.18;;
18649;SDS011;9454;53.516;10.478;2023-09-12T04:52:32;26.27;;;12.55;;
18649;SDS011;9454;53.516;10.478;2023-09-12T04:55:36;28.20;;;13.38;;
18649;SDS011;9454;53.516;10.478;2023-09-12T04:58:40;39.65;;;13.52;;
18649;SDS011;9454;53.516;10.478;2023-09-12T05:01:44;26.02;;;12.15;;
18649;SDS011;9454;53.516;10.478;2023-09-12T05:04:53;24.80;;;13.35;;
18649;SDS011;9454;53.516;10.478;2023-09-12T05:07:58;25.58;;;12.10;;
18649;SDS011;9454;53.516;10.478;2023-09-12T05:11:02;20.85;;;10.57;;
18649;SDS011;9454;53.516;10.478;2023-09-12T05:14:06;27.40;;;12.65;;
18649;SDS011;9454;53.516;10.478;2023-09-12T05:17:09;23.95;;;11.95;;
18649;SDS011;9454;53.516;10.478;2023-09-12T05:20:15;24.05;;;11.90;;
18649;SDS011;9454;53.516;10.478;2023-09-12T05:23:19;22.27;;;11.57;;
18649;SDS011;9454;53.516;10.478;2023-09-12T05:26:22;22.73;;;12.65;;
18649;SDS011;9454;53.516;10.478;2023-09-12T05:29:26;26.08;;;13.18;;
18649;SDS011;9454;53.516;10.478;2023-09-12T05:32:30;24.73;;;12.57;;
18649;SDS011;9454;53.516;10.478;2023-09-12T05:35:38;25.38;;;12.90;;
18649;SDS011;9454;53.516;10.478;2023-09-12T05:38:42;27.88;;;12.32;;
18649;SDS011;9454;53.516;10.478;2023-09-12T05:41:46;32.33;;;14.30;;
18649;SDS011;9454;53.516;10.478;2023-09-12T05:44:50;25.83;;;13.40;;
18649;SDS011;9454;53.516;10.478;2023-09-12T05:47:55;30.00;;;14.25;;
18649;SDS011;9454;53.516;10.478;2023-09-12T05:51:03;33.65;;;14.73;;
18649;SDS011;9454;53.516;10.478;2023-09-12T05:54:07;41.63;;;16.17;;
18649;SDS011;9454;53.516;10.478;2023-09-12T05:57:12;35.35;;;14.88;;
18649;SDS011;9454;53.516;10.478;2023-09-12T06:00:16;30.80;;;15.50;;
18649;SDS011;9454;53.516;10.478;2023-09-12T06:03:20;31.75;;;14.32;;
18649;SDS011;9454;53.516;10.478;2023-09-12T06:06:26;33.83;;;14.40;;
18649;SDS011;9454;53.516;10.478;2023-09-12T06:09:30;34.38;;;14.23;;
18649;SDS011;9454;53.516;10.478;2023-09-12T06:12:34;27.52;;;13.10;;
18649;SDS011;9454;53.516;10.478;2023-09-12T06:15:38;26.67;;;13.23;;
18649;SDS011;9454;53.516;10.478;2023-09-12T06:18:43;30.80;;;15.02;;
18649;SDS011;9454;53.516;10.478;2023-09-12T06:21:48;35.33;;;13.32;;
18649;SDS011;9454;53.516;10.478;2023-09-12T06:24:52;26.20;;;14.15;;
18649;SDS011;9454;53.516;10.478;2023-09-12T06:27:56;27.38;;;13.13;;
18649;SDS011;9454;53.516;10.478;2023-09-12T06:31:00;25.85;;;12.85;;
18649;SDS011;9454;53.516;10.478;2023-09-12T06:34:04;30.88;;;14.95;;
18649;SDS011;9454;53.516;10.478;2023-09-12T06:37:11;27.05;;;14.05;;
18649;SDS011;9454;53.516;10.478;2023-09-12T06:40:15;27.33;;;14.05;;
18649;SDS011;9454;53.516;10.478;2023-09-12T06:43:19;32.42;;;14.75;;
18649;SDS011;9454;53.516;10.478;2023-09-12T06:46:22;26.38;;;13.07;;
18649;SDS011;9454;53.516;10.478;2023-09-12T06:49:27;26.50;;;13.25;;
18649;SDS011;9454;53.516;10.478;2023-09-12T06:52:34;28.10;;;13.23;;
18649;SDS011;9454;53.516;10.478;2023-09-12T06:55:37;29.98;;;15.23;;
18649;SDS011;9454;53.516;10.478;2023-09-12T06:58:41;26.65;;;12.85;;
18649;SDS011;9454;53.516;10.478;2023-09-12T07:01:46;28.98;;;14.85;;
18649;SDS011;9454;53.516;10.478;2023-09-12T07:04:50;28.05;;;14.15;;
18649;SDS011;9454;53.516;10.478;2023-09-12T07:07:57;36.20;;;14.25;;
18649;SDS011;9454;53.516;10.478;2023-09-12T07:11:00;27.60;;;14.77;;
18649;SDS011;9454;53.516;10.478;2023-09-12T07:14:07;30.10;;;13.93;;
18649;SDS011;9454;53.516;10.478;2023-09-12T07:17:11;37.85;;;18.58;;
18649;SDS011;9454;53.516;10.478;2023-09-12T07:20:15;36.08;;;15.88;;
18649;SDS011;9454;53.516;10.478;2023-09-12T07:23:21;32.13;;;16.25;;
18649;SDS011;9454;53.516;10.478;2023-09-12T07:26:24;33.78;;;15.77;;
18649;SDS011;9454;53.516;10.478;2023-09-12T07:29:29;32.13;;;16.20;;
18649;SDS011;9454;53.516;10.478;2023-09-12T07:32:35;33.72;;;17.33;;
18649;SDS011;9454;53.516;10.478;2023-09-12T07:35:39;36.92;;;16.65;;
18649;SDS011;9454;53.516;10.478;2023-09-12T07:38:44;36.83;;;17.80;;
18649;SDS011;9454;53.516;10.478;2023-09-12T07:41:48;35.25;;;17.20;;
18649;SDS011;9454;53.516;10.478;2023-09-12T07:44:52;32.45;;;16.58;;
18649;SDS011;9454;53.516;10.478;2023-09-12T07:47:55;30.90;;;15.05;;
18649;SDS011;9454;53.516;10.478;2023-09-12T07:50:59;34.78;;;16.65;;
18649;SDS011;9454;53.516;10.478;2023-09-12T07:54:04;36.55;;;16.98;;
18649;SDS011;9454;53.516;10.478;2023-09-12T07:57:10;38.70;;;17.60;;
18649;SDS011;9454;53.516;10.478;2023-09-12T08:00:14;33.97;;;17.27;;
18649;SDS011;9454;53.516;10.478;2023-09-12T08:03:18;36.05;;;17.25;;
18649;SDS011;9454;53.516;10.478;2023-09-12T08:06:22;34.20;;;17.77;;
18649;SDS011;9454;53.516;10.478;2023-09-12T08:12:53;37.50;;;17.58;;
18649;SDS011;9454;53.516;10.478;2023-09-12T08:15:56;33.83;;;16.67;;
18649;SDS011;9454;53.516;10.478;2023-09-12T08:19:01;33.58;;;16.67;;
18649;SDS011;9454;53.516;10.478;2023-09-12T08:22:04;29.70;;;15.95;;
18649;SDS011;9454;53.516;10.478;2023-09-12T08:25:08;30.55;;;16.02;;
18649;SDS011;9454;53.516;10.478;2023-09-12T08:28:15;32.67;;;16.25;;
18649;SDS011;9454;53.516;10.478;2023-09-12T08:31:18;30.42;;;16.25;;
18649;SDS011;9454;53.516;10.478;2023-09-12T08:34:24;35.47;;;17.77;;
18649;SDS011;9454;53.516;10.478;2023-09-12T08:37:30;29.15;;;16.23;;
18649;SDS011;9454;53.516;10.478;2023-09-12T08:40:33;31.80;;;16.23;;
18649;SDS011;9454;53.516;10.478;2023-09-12T08:43:39;30.15;;;16.80;;
18649;SDS011;9454;53.516;10.478;2023-09-12T08:46:43;36.85;;;16.27;;
18649;SDS011;9454;53.516;10.478;2023-09-12T08:49:48;32.90;;;17.35;;
18649;SDS011;9454;53.516;10.478;2023-09-12T08:52:52;29.50;;;16.02;;
18649;SDS011;9454;53.516;10.478;2023-09-12T08:56:08;31.98;;;16.40;;
18649;SDS011;9454;53.516;10.478;2023-09-12T08:59:14;28.95;;;15.32;;
18649;SDS011;9454;53.516;10.478;2023-09-12T09:02:18;29.70;;;15.25;;
18649;SDS011;9454;53.516;10.478;2023-09-12T09:05:21;24.50;;;13.77;;
18649;SDS011;9454;53.516;10.478;2023-09-12T09:08:32;29.33;;;15.70;;
18649;SDS011;9454;53.516;10.478;2023-09-12T09:11:36;31.17;;;14.20;;
18649;SDS011;9454;53.516;10.478;2023-09-12T09:14:41;29.92;;;15.15;;
18649;SDS011;9454;53.516;10.478;2023-09-12T09:17:44;28.58;;;15.05;;
18649;SDS011;9454;53.516;10.478;2023-09-12T09:20:48;31.13;;;15.85;;
18649;SDS011;9454;53.516;10.478;2023-09-12T09:23:52;33.38;;;17.52;;
18649;SDS011;9454;53.516;10.478;2023-09-12T09:26:56;36.75;;;16.38;;
18649;SDS011;9454;53.516;10.478;2023-09-12T09:30:04;28.92;;;14.52;;
18649;SDS011;9454;53.516;10.478;2023-09-12T09:33:09;29.70;;;13.95;;
18649;SDS011;9454;53.516;10.478;2023-09-12T09:36:13;21.52;;;11.95;;
18649;SDS011;9454;53.516;10.478;2023-09-12T09:39:17;21.98;;;11.85;;
18649;SDS011;9454;53.516;10.478;2023-09-12T09:42:21;29.05;;;12.63;;
18649;SDS011;9454;53.516;10.478;2023-09-12T09:45:26;23.10;;;11.52;;
18649;SDS011;9454;53.516;10.478;2023-09-12T09:48:30;26.02;;;12.75;;
18649;SDS011;9454;53.516;10.478;2023-09-12T09:51:38;24.45;;;13.10;;
18649;SDS011;9454;53.516;10.478;2023-09-12T09:54:44;18.23;;;11.13;;
18649;SDS011;9454;53.516;10.478;2023-09-12T09:57:48;25.08;;;12.32;;
18649;SDS011;9454;53.516;10.478;2023-09-12T10:00:55;22.13;;;12.18;;
18649;SDS011;9454;53.516;10.478;2023-09-12T10:03:59;18.33;;;9.50;;
18649;SDS011;9454;53.516;10.478;2023-09-12T10:07:04;25.85;;;11.00;;
18649;SDS011;9454;53.516;10.478;2023-09-12T10:10:12;19.08;;;10.50;;
18649;SDS011;9454;53.516;10.478;2023-09-12T10:13:16;19.27;;;10.30;;
18649;SDS011;9454;53.516;10.478;2023-09-12T10:16:24;19.75;;;9.93;;
18649;SDS011;9454;53.516;10.478;2023-09-12T10:19:32;21.80;;;11.50;;
18649;SDS011;9454;53.516;10.478;2023-09-12T10:22:37;18.00;;;9.38;;
18649;SDS011;9454;53.516;10.478;2023-09-12T10:25:43;16.83;;;10.60;;
18649;SDS011;9454;53.516;10.478;2023-09-12T10:28:48;18.33;;;10.90;;
18649;SDS011;9454;53.516;10.478;2023-09-12T10:31:53;18.60;;;10.38;;
18649;SDS011;9454;53.516;10.478;2023-09-12T10:34:58;20.77;;;11.05;;
18649;SDS011;9454;53.516;10.478;2023-09-12T10:38:04;20.33;;;11.75;;
18649;SDS011;9454;53.516;10.478;2023-09-12T10:41:08;19.48;;;11.20;;
18649;SDS011;9454;53.516;10.478;2023-09-12T10:44:14;19.65;;;11.77;;
18649;SDS011;9454;53.516;10.478;2023-09-12T10:47:21;20.80;;;12.10;;
18649;SDS011;9454;53.516;10.478;2023-09-12T10:50:25;23.42;;;10.23;;
18649;SDS011;9454;53.516;10.478;2023-09-12T10:53:29;15.90;;;9.48;;
18649;SDS011;9454;53.516;10.478;2023-09-12T10:56:34;18.23;;;11.07;;
18649;SDS011;9454;53.516;10.478;2023-09-12T10:59:42;18.15;;;10.88;;
18649;SDS011;9454;53.516;10.478;2023-09-12T11:06:30;18.80;;;10.48;;
18649;SDS011;9454;53.516;10.478;2023-09-12T11:09:34;16.90;;;10.07;;
18649;SDS011;9454;53.516;10.478;2023-09-12T11:12:38;17.40;;;10.38;;
18649;SDS011;9454;53.516;10.478;2023-09-12T11:15:42;15.30;;;10.02;;
18649;SDS011;9454;53.516;10.478;2023-09-12T11:19:12;19.73;;;9.63;;
18649;SDS011;9454;53.516;10.478;2023-09-12T11:22:25;15.90;;;10.45;;
18649;SDS011;9454;53.516;10.478;2023-09-12T11:25:28;17.45;;;9.77;;
18649;SDS011;9454;53.516;10.478;2023-09-12T11:28:36;17.50;;;10.25;;
18649;SDS011;9454;53.516;10.478;2023-09-12T11:31:40;20.13;;;11.63;;
18649;SDS011;9454;53.516;10.478;2023-09-12T11:34:44;17.58;;;10.63;;
18649;SDS011;9454;53.516;10.478;2023-09-12T11:37:49;21.17;;;10.88;;
18649;SDS011;9454;53.516;10.478;2023-09-12T11:40:53;17.25;;;10.70;;
18649;SDS011;9454;53.516;10.478;2023-09-12T11:43:56;17.00;;;10.73;;
18649;SDS011;9454;53.516;10.478;2023-09-12T11:47:00;19.63;;;10.05;;
18649;SDS011;9454;53.516;10.478;2023-09-12T11:50:08;16.40;;;10.68;;
18649;SDS011;9454;53.516;10.478;2023-09-12T11:53:13;16.00;;;9.98;;
18649;SDS011;9454;53.516;10.478;2023-09-12T11:56:17;14.40;;;8.20;;
18649;SDS011;9454;53.516;10.478;2023-09-12T11:59:20;16.05;;;9.80;;
18649;SDS011;9454;53.516;10.478;2023-09-12T12:02:26;15.98;;;9.35;;
18649;SDS011;9454;53.516;10.478;2023-09-12T12:05:30;15.65;;;8.80;;
18649;SDS011;9454;53.516;10.478;2023-09-12T12:08:35;9.85;;;7.13;;
18649;SDS011;9454;53.516;10.478;2023-09-12T12:11:39;16.27;;;9.10;;
18649;SDS011;9454;53.516;10.478;2023-09-12T12:14:44;11.27;;;7.60;;
18649;SDS011;9454;53.516;10.478;2023-09-12T12:17:48;14.10;;;8.70;;
18649;SDS011;9454;53.516;10.478;2023-09-12T12:20:51;12.20;;;7.78;;
18649;SDS011;9454;53.516;10.478;2023-09-12T12:24:00;13.65;;;8.10;;
18649;SDS011;9454;53.516;10.478;2023-09-12T12:27:04;12.88;;;7.43;;
18649;SDS011;9454;53.516;10.478;2023-09-12T12:30:10;12.02;;;7.53;;
18649;SDS011;9454;53.516;10.478;2023-09-12T12:33:16;10.07;;;6.88;;
18649;SDS011;9454;53.516;10.478;2023-09-12T12:36:40;10.57;;;6.35;;
18649;SDS011;9454;53.516;10.478;2023-09-12T12:39:59;12.15;;;6.95;;
18649;SDS011;9454;53.516;10.478;2023-09-12T12:43:06;17.00;;;7.30;;
18649;SDS011;9454;53.516;10.478;2023-09-12T12:46:21;11.20;;;7.15;;
18649;SDS011;9454;53.516;10.478;2023-09-12T12:49:25;10.98;;;6.88;;
18649;SDS011;9454;53.516;10.478;2023-09-12T12:52:28;9.35;;;5.85;;
18649;SDS011;9454;53.516;10.478;2023-09-12T12:55:34;11.90;;;7.15;;
18649;SDS011;9454;53.516;10.478;2023-09-12T12:58:44;14.70;;;7.30;;
18649;SDS011;9454;53.516;10.478;2023-09-12T13:01:48;10.65;;;5.70;;
18649;SDS011;9454;53.516;10.478;2023-09-12T13:04:54;9.23;;;6.43;;
18649;SDS011;9454;53.516;10.478;2023-09-12T13:07:59;10.95;;;6.47;;
18649;SDS011;9454;53.516;10.478;2023-09-12T13:11:05;9.02;;;5.53;;
18649;SDS011;9454;53.516;10.478;2023-09-12T13:14:08;12.10;;;6.55;;
18649;SDS011;9454;53.516;10.478;2023-09-12T13:17:13;9.52;;;5.88;;
18649;SDS011;9454;53.516;10.478;2023-09-12T13:20:17;12.15;;;6.50;;
18649;SDS011;9454;53.516;10.478;2023-09-12T13:23:22;11.82;;;6.10;;
18649;SDS011;9454;53.516;10.478;2023-09-12T13:26:30;8.52;;;5.45;;
18649;SDS011;9454;53.516;10.478;2023-09-12T13:29:34;7.50;;;4.78;;
18649;SDS011;9454;53.516;10.478;2023-09-12T13:32:38;7.13;;;4.78;;
18649;SDS011;9454;53.516;10.478;2023-09-12T13:35:43;7.75;;;5.20;;
18649;SDS011;9454;53.516;10.478;2023-09-12T13:38:46;7.60;;;5.20;;
18649;SDS011;9454;53.516;10.478;2023-09-12T13:41:54;11.18;;;5.25;;
18649;SDS011;9454;53.516;10.478;2023-09-12T13:44:59;10.48;;;5.22;;
18649;SDS011;9454;53.516;10.478;2023-09-12T13:48:11;8.00;;;5.00;;
18649;SDS011;9454;53.516;10.478;2023-09-12T13:51:47;12.50;;;4.72;;
18649;SDS011;9454;53.516;10.478;2023-09-12T13:54:54;11.00;;;4.93;;
18649;SDS011;9454;53.516;10.478;2023-09-12T13:58:31;7.32;;;4.80;;
18649;SDS011;9454;53.516;10.478;2023-09-12T14:01:45;6.25;;;4.50;;
18649;SDS011;9454;53.516;10.478;2023-09-12T14:05:18;7.22;;;4.97;;
18649;SDS011;9454;53.516;10.478;2023-09-12T14:08:22;7.60;;;4.43;;
18649;SDS011;9454;53.516;10.478;2023-09-12T14:11:45;6.82;;;4.53;;
18649;SDS011;9454;53.516;10.478;2023-09-12T14:14:51;8.98;;;4.45;;
18649;SDS011;9454;53.516;10.478;2023-09-12T14:18:07;6.90;;;5.10;;
18649;SDS011;9454;53.516;10.478;2023-09-12T14:21:11;6.95;;;4.45;;
18649;SDS011;9454;53.516;10.478;2023-09-12T14:24:16;9.52;;;5.15;;
18649;SDS011;9454;53.516;10.478;2023-09-12T14:27:21;10.02;;;5.32;;
18649;SDS011;9454;53.516;10.478;2023-09-12T14:30:29;8.68;;;4.78;;
18649;SDS011;9454;53.516;10.478;2023-09-12T14:33:36;7.38;;;4.85;;
18649;SDS011;9454;53.516;10.478;2023-09-12T14:36:40;11.93;;;5.03;;
18649;SDS011;9454;53.516;10.478;2023-09-12T14:39:46;9.43;;;5.15;;
18649;SDS011;9454;53.516;10.478;2023-09-12T14:42:50;10.40;;;4.70;;
18649;SDS011;9454;53.516;10.478;2023-09-12T14:45:55;8.50;;;4.13;;
18649;SDS011;9454;53.516;10.478;2023-09-12T14:48:59;7.80;;;4.35;;
18649;SDS011;9454;53.516;10.478;2023-09-12T14:52:03;10.15;;;4.57;;
18649;SDS011;9454;53.516;10.478;2023-09-12T14:55:22;12.77;;;5.32;;
18649;SDS011;9454;53.516;10.478;2023-09-12T14:58:25;9.30;;;4.53;;
18649;SDS011;9454;53.516;10.478;2023-09-12T15:01:31;9.70;;;5.38;;
18649;SDS011;9454;53.516;10.478;2023-09-12T15:04:35;13.63;;;4.68;;
18649;SDS011;9454;53.516;10.478;2023-09-12T15:07:39;6.00;;;4.43;;
18649;SDS011;9454;53.516;10.478;2023-09-12T15:10:42;7.00;;;3.83;;
18649;SDS011;9454;53.516;10.478;2023-09-12T15:13:46;10.50;;;4.47;;
18649;SDS011;9454;53.516;10.478;2023-09-12T15:16:52;6.65;;;3.95;;
18649;SDS011;9454;53.516;10.478;2023-09-12T15:19:56;5.85;;;4.20;;
18649;SDS011;9454;53.516;10.478;2023-09-12T15:23:00;7.43;;;4.55;;
18649;SDS011;9454;53.516;10.478;2023-09-12T15:26:06;6.80;;;4.53;;
18649;SDS011;9454;53.516;10.478;2023-09-12T15:29:10;10.23;;;5.15;;
18649;SDS011;9454;53.516;10.478;2023-09-12T15:32:16;13.70;;;4.90;;
18649;SDS011;9454;53.516;10.478;2023-09-12T15:35:22;5.40;;;3.97;;
18649;SDS011;9454;53.516;10.478;2023-09-12T15:38:26;5.95;;;3.90;;
18649;SDS011;9454;53.516;10.478;2023-09-12T15:41:30;5.55;;;4.35;;
18649;SDS011;9454;53.516;10.478;2023-09-12T15:44:34;11.18;;;4.55;;
18649;SDS011;9454;53.516;10.478;2023-09-12T15:47:39;10.63;;;4.55;;
18649;SDS011;9454;53.516;10.478;2023-09-12T15:50:42;10.40;;;4.28;;
18649;SDS011;9454;53.516;10.478;2023-09-12T15:53:46;4.10;;;3.70;;
18649;SDS011;9454;53.516;10.478;2023-09-12T15:56:50;5.13;;;4.20;;
18649;SDS011;9454;53.516;10.478;2023-09-12T15:59:53;9.43;;;4.22;;
18649;SDS011;9454;53.516;10.478;2023-09-12T16:02:58;8.10;;;3.63;;
18649;SDS011;9454;53.516;10.478;2023-09-12T16:06:02;8.90;;;4.53;;
18649;SDS011;9454;53.516;10.478;2023-09-12T16:09:05;11.98;;;4.68;;
18649;SDS011;9454;53.516;10.478;2023-09-12T16:12:09;7.30;;;3.90;;
18649;SDS011;9454;53.516;10.478;2023-09-12T16:15:13;6.45;;;3.53;;
18649;SDS011;9454;53.516;10.478;2023-09-12T16:18:18;7.63;;;3.95;;
18649;SDS011;9454;53.516;10.478;2023-09-12T16:21:22;4.85;;;3.60;;
18649;SDS011;9454;53.516;10.478;2023-09-12T16:24:27;6.70;;;3.58;;
18649;SDS011;9454;53.516;10.478;2023-09-12T16:27:31;6.55;;;4.05;;
18649;SDS011;9454;53.516;10.478;2023-09-12T16:30:35;9.13;;;3.28;;
18649;SDS011;9454;53.516;10.478;2023-09-12T16:33:41;5.10;;;3.72;;
18649;SDS011;9454;53.516;10.478;2023-09-12T16:36:46;6.03;;;3.42;;
18649;SDS011;9454;53.516;10.478;2023-09-12T16:39:49;6.20;;;3.88;;
18649;SDS011;9454;53.516;10.478;2023-09-12T16:42:53;6.07;;;4.47;;
18649;SDS011;9454;53.516;10.478;2023-09-12T16:45:57;10.13;;;4.03;;
18649;SDS011;9454;53.516;10.478;2023-09-12T16:49:02;10.98;;;3.85;;
18649;SDS011;9454;53.516;10.478;2023-09-12T16:52:06;7.53;;;3.97;;
18649;SDS011;9454;53.516;10.478;2023-09-12T16:55:11;6.82;;;3.70;;
18649;SDS011;9454;53.516;10.478;2023-09-12T16:58:18;5.40;;;3.42;;
18649;SDS011;9454;53.516;10.478;2023-09-12T17:01:22;5.28;;;3.53;;
18649;SDS011;9454;53.516;10.478;2023-09-12T17:04:27;8.57;;;3.70;;
18649;SDS011;9454;53.516;10.478;2023-09-12T17:07:31;7.22;;;3.63;;
18649;SDS011;9454;53.516;10.478;2023-09-12T17:10:35;4.85;;;3.70;;
18649;SDS011;9454;53.516;10.478;2023-09-12T17:13:39;7.38;;;4.57;;
18649;SDS011;9454;53.516;10.478;2023-09-12T17:16:43;12.25;;;3.63;;
18649;SDS011;9454;53.516;10.478;2023-09-12T17:19:49;7.25;;;3.85;;
18649;SDS011;9454;53.516;10.478;2023-09-12T17:22:52;4.93;;;3.72;;
18649;SDS011;9454;53.516;10.478;2023-09-12T17:25:56;6.45;;;3.50;;
18649;SDS011;9454;53.516;10.478;2023-09-12T17:29:00;8.88;;;3.78;;
18649;SDS011;9454;53.516;10.478;2023-09-12T17:32:07;14.10;;;7.22;;
18649;SDS011;9454;53.516;10.478;2023-09-12T17:35:13;16.90;;;6.85;;
18649;SDS011;9454;53.516;10.478;2023-09-12T17:38:17;9.35;;;5.53;;
18649;SDS011;9454;53.516;10.478;2023-09-12T17:41:20;5.53;;;3.92;;
18649;SDS011;9454;53.516;10.478;2023-09-12T17:44:24;7.85;;;4.07;;
18649;SDS011;9454;53.516;10.478;2023-09-12T17:47:28;9.35;;;3.75;;
18649;SDS011;9454;53.516;10.478;2023-09-12T17:50:33;5.68;;;3.65;;
18649;SDS011;9454;53.516;10.478;2023-09-12T17:53:37;5.25;;;3.75;;
18649;SDS011;9454;53.516;10.478;2023-09-12T17:56:41;8.63;;;3.72;;
18649;SDS011;9454;53.516;10.478;2023-09-12T17:59:45;6.30;;;4.00;;
18649;SDS011;9454;53.516;10.478;2023-09-12T18:02:49;7.82;;;3.55;;
18649;SDS011;9454;53.516;10.478;2023-09-12T18:05:54;5.55;;;3.78;;
18649;SDS011;9454;53.516;10.478;2023-09-12T18:09:00;7.45;;;3.83;;
18649;SDS011;9454;53.516;10.478;2023-09-12T18:12:04;5.63;;;3.67;;
18649;SDS011;9454;53.516;10.478;2023-09-12T18:15:08;13.98;;;5.07;;
18649;SDS011;9454;53.516;10.478;2023-09-12T18:18:13;6.60;;;4.00;;
18649;SDS011;9454;53.516;10.478;2023-09-12T18:21:19;6.97;;;3.85;;
18649;SDS011;9454;53.516;10.478;2023-09-12T18:24:22;7.07;;;4.20;;